桃園國際機場 - 塔臺(一站)

METAR RCTP 271030Z 04024KT 9999 FEW010 BKN018 BKN030 21/17 Q1022 NOSIG RMK A3018(O)=

站台狀態:Online
最後更新:2020-11-27 18:30:01